Time;durP1;ratioP1;P1;durP2;ratioP2;P2;SDS_P1;SDS_P2;PMS_P1;PMS_P2;Temp;Humidity;BMP_temperature;BMP_pressure;BME280_temperature;BME280_humidity;BME280_pressure;Samples;Min_cycle;Max_cycle;Signal;HPM_P1;HPM_P2
2021/10/24 00:01:13;;;;;;;4.72;2.67;;;6.00;99.90;;;;;;5031549;28;20240;-78
2021/10/24 00:03:39;;;;;;;4.10;2.28;;;5.90;99.90;;;;;;5032940;28;20243;-77
2021/10/24 00:06:05;;;;;;;5.95;2.47;;;5.80;99.90;;;;;;5033094;28;20178;-77
2021/10/24 00:08:31;;;;;;;4.93;2.60;;;5.90;99.90;;;;;;5031785;28;20166;-78
2021/10/24 00:10:57;;;;;;;7.88;2.78;;;5.90;99.90;;;;;;5031575;28;20213;-78
2021/10/24 00:13:23;;;;;;;3.80;2.97;;;5.90;99.90;;;;;;5031609;28;20610;-78
2021/10/24 00:15:49;;;;;;;5.45;2.75;;;5.90;99.90;;;;;;5032914;28;20170;-78
2021/10/24 00:18:15;;;;;;;3.85;2.33;;;5.80;99.90;;;;;;5032790;28;20244;-78
2021/10/24 00:20:41;;;;;;;2.75;2.08;;;5.70;99.90;;;;;;5031337;28;20208;-78
2021/10/24 00:23:07;;;;;;;4.15;2.63;;;5.70;99.90;;;;;;5032591;28;20166;-78
2021/10/24 00:25:33;;;;;;;6.47;2.88;;;5.70;99.90;;;;;;5032527;28;20665;-79
2021/10/24 00:27:58;;;;;;;6.22;2.20;;;5.70;99.90;;;;;;5031340;28;20630;-78
2021/10/24 00:30:25;;;;;;;4.10;2.33;;;5.70;99.90;;;;;;5031149;28;20200;-78
2021/10/24 00:32:50;;;;;;;3.45;2.25;;;5.60;99.90;;;;;;5031294;28;20220;-78
2021/10/24 00:35:16;;;;;;;3.85;2.58;;;5.50;99.90;;;;;;5032514;28;20158;-77
2021/10/24 00:37:42;;;;;;;6.22;2.33;;;5.60;99.90;;;;;;5032474;28;20163;-78
2021/10/24 00:40:09;;;;;;;7.38;2.35;;;5.60;99.90;;;;;;5030903;28;20682;-78
2021/10/24 00:42:35;;;;;;;4.75;2.40;;;5.60;99.90;;;;;;5032376;28;20163;-78
2021/10/24 00:45:01;;;;;;;5.38;2.60;;;5.50;99.90;;;;;;5030907;28;20194;-78
2021/10/24 00:47:30;;;;;;;7.97;3.67;;;5.50;99.90;;;;;;5032199;28;20166;-78
2021/10/24 00:49:56;;;;;;;6.88;3.10;;;5.50;99.90;;;;;;5030851;28;20190;-78
2021/10/24 00:52:22;;;;;;;6.70;3.53;;;5.40;99.90;;;;;;5032085;28;20214;-78
2021/10/24 00:54:49;;;;;;;3.70;2.50;;;5.30;99.90;;;;;;5032075;28;20173;-78
2021/10/24 00:57:15;;;;;;;13.02;3.55;;;5.30;99.90;;;;;;5032187;28;20540;-78
2021/10/24 00:59:41;;;;;;;5.68;2.90;;;5.30;99.90;;;;;;5030647;28;20194;-78
2021/10/24 01:02:07;;;;;;;5.18;2.85;;;5.30;99.90;;;;;;5045561;28;20225;-78
2021/10/24 01:04:33;;;;;;;5.63;3.38;;;5.20;99.90;;;;;;5033895;28;20204;-78
2021/10/24 01:07:03;;;;;;;7.13;2.80;;;5.20;99.90;;;;;;5033785;28;20639;-77
2021/10/24 01:09:31;;;;;;;5.05;3.10;;;5.00;99.90;;;;;;5033743;28;20157;-78
2021/10/24 01:11:58;;;;;;;5.75;3.60;;;5.00;99.90;;;;;;5033711;28;20161;-78
2021/10/24 01:14:24;;;;;;;5.80;3.22;;;5.00;99.90;;;;;;5051468;28;20626;-78
2021/10/24 01:16:51;;;;;;;6.38;3.28;;;5.00;99.90;;;;;;5033609;28;20179;-78
2021/10/24 01:19:19;;;;;;;4.50;3.20;;;5.00;99.90;;;;;;5051372;28;20166;-79
2021/10/24 01:21:46;;;;;;;3.20;2.53;;;5.00;99.90;;;;;;5051471;28;20244;-78
2021/10/24 01:24:12;;;;;;;4.80;3.00;;;5.00;99.90;;;;;;5033467;28;20757;-79
2021/10/24 01:26:39;;;;;;;8.15;3.83;;;5.00;99.90;;;;;;5051294;28;20638;-78
2021/10/24 01:29:08;;;;;;;5.28;3.67;;;5.00;99.90;;;;;;5051234;28;20156;-78
2021/10/24 01:31:34;;;;;;;7.93;3.50;;;5.10;99.90;;;;;;5051160;28;20221;-78
2021/10/24 01:34:01;;;;;;;6.22;3.22;;;5.00;99.90;;;;;;5033373;28;20169;-78
2021/10/24 01:36:27;;;;;;;9.57;4.13;;;5.00;99.90;;;;;;5051201;28;20165;-78
2021/10/24 01:38:53;;;;;;;4.25;3.50;;;4.90;99.90;;;;;;5051028;28;20161;-77
2021/10/24 01:41:23;;;;;;;4.88;3.10;;;4.90;99.90;;;;;;5051024;28;20200;-78
2021/10/24 01:43:49;;;;;;;9.00;3.22;;;4.90;99.90;;;;;;5033137;28;20197;-78
2021/10/24 01:46:16;;;;;;;5.25;3.60;;;4.80;99.90;;;;;;5050872;28;20169;-78
2021/10/24 01:48:43;;;;;;;7.28;3.88;;;4.80;99.90;;;;;;5033026;28;20164;-78
2021/10/24 01:51:10;;;;;;;6.90;3.38;;;4.80;99.90;;;;;;5032906;28;20200;-78
2021/10/24 01:53:39;;;;;;;6.15;2.83;;;4.80;99.90;;;;;;5050822;28;20557;-77
2021/10/24 01:56:06;;;;;;;5.95;3.10;;;4.80;99.90;;;;;;5050778;28;20204;-78
2021/10/24 01:58:32;;;;;;;4.68;3.08;;;4.80;99.90;;;;;;5050749;28;20209;-77
2021/10/24 02:00:58;;;;;;;6.65;3.40;;;4.80;99.90;;;;;;5029283;28;20256;-78
2021/10/24 02:03:25;;;;;;;7.03;3.17;;;4.80;99.90;;;;;;5029570;28;20220;-78
2021/10/24 02:05:51;;;;;;;2.95;1.95;;;4.70;99.90;;;;;;5030644;28;20233;-78
2021/10/24 02:08:17;;;;;;;3.65;2.60;;;4.70;99.90;;;;;;5029535;28;20181;-78
2021/10/24 02:10:44;;;;;;;6.53;2.40;;;4.70;99.90;;;;;;5029297;28;20262;-78
2021/10/24 02:13:11;;;;;;;4.82;2.38;;;4.80;99.90;;;;;;5028486;28;20185;-78
2021/10/24 02:15:38;;;;;;;3.20;2.60;;;4.80;99.90;;;;;;5030526;28;20178;-78
2021/10/24 02:18:05;;;;;;;3.90;2.25;;;4.90;99.90;;;;;;5030545;28;20169;-78
2021/10/24 02:20:34;;;;;;;5.55;2.28;;;4.80;99.90;;;;;;5030463;28;20197;-77
2021/10/24 02:23:01;;;;;;;3.30;2.30;;;4.80;99.90;;;;;;5029085;28;20178;-78
2021/10/24 02:25:28;;;;;;;6.82;3.10;;;4.80;99.90;;;;;;5030307;28;20586;-78
2021/10/24 02:27:55;;;;;;;4.55;2.45;;;4.80;99.90;;;;;;5030470;28;20159;-78
2021/10/24 02:30:22;;;;;;;5.47;3.35;;;4.80;99.90;;;;;;5029012;28;20197;-78
2021/10/24 02:32:48;;;;;;;3.85;2.45;;;4.80;99.90;;;;;;5028965;28;20197;-78
2021/10/24 02:35:15;;;;;;;3.90;2.20;;;4.80;99.90;;;;;;5030260;28;20174;-78
2021/10/24 02:37:43;;;;;;;7.57;2.38;;;4.70;99.90;;;;;;5030352;28;20162;-78
2021/10/24 02:40:10;;;;;;;3.67;2.22;;;4.70;99.90;;;;;;5030206;28;20194;-78
2021/10/24 02:42:37;;;;;;;4.55;1.92;;;4.60;99.90;;;;;;5030144;28;20158;-78
2021/10/24 02:45:04;;;;;;;3.38;2.53;;;4.60;99.90;;;;;;5029966;28;20272;-78
2021/10/24 02:47:30;;;;;;;5.10;2.00;;;4.70;99.90;;;;;;5028722;28;20193;-78
2021/10/24 02:49:56;;;;;;;8.85;2.50;;;4.70;99.90;;;;;;5029952;28;20563;-78
2021/10/24 02:52:22;;;;;;;4.82;1.98;;;4.80;99.90;;;;;;5028753;28;20170;-77
2021/10/24 02:54:51;;;;;;;3.80;2.25;;;4.80;99.90;;;;;;5029784;28;20189;-78
2021/10/24 02:57:17;;;;;;;3.50;2.17;;;4.70;99.90;;;;;;5030008;28;20212;-78
2021/10/24 02:59:43;;;;;;;3.63;2.05;;;4.80;99.90;;;;;;5029788;28;20193;-78
2021/10/24 03:02:09;;;;;;;6.47;2.58;;;4.70;99.90;;;;;;5044033;28;20247;-78
2021/10/24 03:04:35;;;;;;;3.42;1.83;;;4.80;99.90;;;;;;5031754;28;20197;-77
2021/10/24 03:07:00;;;;;;;3.25;2.40;;;4.70;99.90;;;;;;5049577;28;20161;-77
2021/10/24 03:09:27;;;;;;;4.68;2.42;;;4.70;99.90;;;;;;5031779;28;20181;-76
2021/10/24 03:11:53;;;;;;;2.72;1.80;;;4.70;99.90;;;;;;5049285;28;20655;-78
2021/10/24 03:14:19;;;;;;;4.05;2.10;;;4.70;99.90;;;;;;5031606;28;20178;-79
2021/10/24 03:16:44;;;;;;;5.40;2.00;;;4.60;99.90;;;;;;5049395;28;20156;-76
2021/10/24 03:19:11;;;;;;;3.95;2.03;;;4.60;99.90;;;;;;5049231;28;20161;-76
2021/10/24 03:21:37;;;;;;;6.00;2.47;;;4.60;99.90;;;;;;5049330;28;20158;-78
2021/10/24 03:24:07;;;;;;;2.35;1.73;;;4.70;99.90;;;;;;5031385;28;20568;-78
2021/10/24 03:26:33;;;;;;;2.67;2.20;;;4.80;99.90;;;;;;5031484;28;20162;-78
2021/10/24 03:28:59;;;;;;;2.88;1.92;;;4.80;99.90;;;;;;5031627;28;20161;-78
2021/10/24 03:31:26;;;;;;;2.80;1.60;;;4.90;99.90;;;;;;5031282;28;20201;-77
2021/10/24 03:33:52;;;;;;;8.48;1.90;;;4.90;99.90;;;;;;5031517;28;20191;-77
2021/10/24 03:36:18;;;;;;;5.50;2.47;;;4.80;99.90;;;;;;5049234;28;20180;-77
2021/10/24 03:38:45;;;;;;;3.72;1.90;;;4.80;99.90;;;;;;5031242;28;20169;-77
2021/10/24 03:41:14;;;;;;;2.75;1.48;;;4.80;99.90;;;;;;5049014;28;20196;-77
2021/10/24 03:43:41;;;;;;;3.00;1.50;;;4.70;99.90;;;;;;5031209;28;20165;-77
2021/10/24 03:46:07;;;;;;;3.50;2.03;;;4.70;99.90;;;;;;5049022;28;20157;-77
2021/10/24 03:48:33;;;;;;;6.65;2.40;;;4.70;99.90;;;;;;5048832;28;20164;-77
2021/10/24 03:50:59;;;;;;;3.20;2.20;;;4.70;99.90;;;;;;5030969;28;20200;-77
2021/10/24 03:53:25;;;;;;;4.30;2.38;;;4.70;99.90;;;;;;5031077;28;20168;-77
2021/10/24 03:55:51;;;;;;;2.75;2.17;;;4.70;99.90;;;;;;5049095;28;20166;-77
2021/10/24 03:58:16;;;;;;;4.82;2.30;;;4.60;99.90;;;;;;5031113;28;20165;-77
2021/10/24 04:00:44;;;;;;;3.75;2.05;;;4.60;99.90;;;;;;5030924;28;20229;-77
2021/10/24 04:03:11;;;;;;;2.95;2.25;;;4.50;99.90;;;;;;5031135;28;20181;-77
2021/10/24 04:05:38;;;;;;;2.92;2.10;;;4.60;99.90;;;;;;5031110;28;20273;-77
2021/10/24 04:08:04;;;;;;;4.65;3.00;;;4.60;99.90;;;;;;5048711;28;20225;-78
2021/10/24 04:10:30;;;;;;;4.00;2.20;;;4.50;99.90;;;;;;5048881;28;20199;-77
2021/10/24 04:12:57;;;;;;;2.20;1.88;;;4.50;99.90;;;;;;5048794;28;20177;-77
2021/10/24 04:15:24;;;;;;;3.42;1.75;;;4.40;99.90;;;;;;5031004;28;20173;-76
2021/10/24 04:17:50;;;;;;;4.30;2.13;;;4.30;99.90;;;;;;5048668;28;20166;-77
2021/10/24 04:20:22;;;;;;;6.72;2.55;;;4.20;99.90;;;;;;5030904;28;20673;-77
2021/10/24 04:22:49;;;;;;;6.97;2.78;;;4.10;99.90;;;;;;5030895;28;20200;-77
2021/10/24 04:25:15;;;;;;;2.53;1.70;;;4.10;99.90;;;;;;5030871;28;20208;-77
2021/10/24 04:27:42;;;;;;;8.10;2.55;;;4.00;99.90;;;;;;5030747;28;20168;-77
2021/10/24 04:30:10;;;;;;;2.75;2.42;;;4.10;99.90;;;;;;5048500;28;20288;-77
2021/10/24 04:32:38;;;;;;;4.35;2.20;;;4.10;99.90;;;;;;5030916;28;20511;-78
2021/10/24 04:35:05;;;;;;;5.68;2.13;;;4.20;99.90;;;;;;5030670;28;20174;-77
2021/10/24 04:37:31;;;;;;;5.05;2.05;;;4.20;99.90;;;;;;5050906;28;20161;-77
2021/10/24 04:39:57;;;;;;;3.00;2.03;;;4.20;99.90;;;;;;5052148;28;20221;-77
2021/10/24 04:42:23;;;;;;;7.30;2.45;;;4.20;99.90;;;;;;5052384;28;20241;-77
2021/10/24 04:44:49;;;;;;;2.95;1.80;;;4.10;99.90;;;;;;5034343;28;20804;-77
2021/10/24 04:47:15;;;;;;;5.50;2.05;;;4.00;99.90;;;;;;5052114;28;20180;-77
2021/10/24 04:49:41;;;;;;;2.65;2.03;;;3.90;99.90;;;;;;5034207;28;20197;-77
2021/10/24 04:52:07;;;;;;;3.10;2.20;;;4.00;99.90;;;;;;5052133;28;20165;-77
2021/10/24 04:54:35;;;;;;;5.25;2.85;;;4.00;99.90;;;;;;5034130;28;20170;-77
2021/10/24 04:57:02;;;;;;;6.20;3.28;;;4.00;99.90;;;;;;5051902;28;20196;-77
2021/10/24 04:59:28;;;;;;;9.40;2.63;;;3.90;99.90;;;;;;5051766;28;20180;-77
2021/10/24 05:01:54;;;;;;;4.47;2.25;;;3.90;99.90;;;;;;5051682;28;20220;-77
2021/10/24 05:04:21;;;;;;;5.43;2.55;;;4.00;99.90;;;;;;5033889;28;20243;-77
2021/10/24 05:06:47;;;;;;;4.82;2.55;;;4.10;99.90;;;;;;5051791;28;20185;-78
2021/10/24 05:09:13;;;;;;;8.13;4.13;;;4.10;99.90;;;;;;5051599;28;20222;-77
2021/10/24 05:11:39;;;;;;;5.30;3.50;;;4.20;99.90;;;;;;5051718;28;20176;-77
2021/10/24 05:14:07;;;;;;;5.32;3.45;;;4.10;99.90;;;;;;5033708;28;20185;-77
2021/10/24 05:16:34;;;;;;;8.43;2.80;;;4.20;99.90;;;;;;5051527;28;20283;-78
2021/10/24 05:19:00;;;;;;;3.95;2.88;;;4.20;99.90;;;;;;5033705;28;20236;-78
2021/10/24 05:21:26;;;;;;;4.25;2.17;;;4.20;99.90;;;;;;5033583;28;20197;-77
2021/10/24 05:23:52;;;;;;;3.65;1.90;;;4.20;99.90;;;;;;5033643;28;20196;-77
2021/10/24 05:26:18;;;;;;;2.58;1.55;;;4.10;99.90;;;;;;5051561;28;20168;-77
2021/10/24 05:28:47;;;;;;;10.57;2.22;;;4.00;99.90;;;;;;5051476;28;20166;-77
2021/10/24 05:31:13;;;;;;;3.28;2.13;;;3.90;99.90;;;;;;5051324;28;20185;-77
2021/10/24 05:33:39;;;;;;;4.53;2.30;;;3.80;99.90;;;;;;5051263;28;20157;-77
2021/10/24 05:36:07;;;;;;;4.75;2.53;;;3.70;99.90;;;;;;5033416;28;20200;-77
2021/10/24 05:38:33;;;;;;;2.53;2.22;;;3.70;99.90;;;;;;5033477;28;20173;-77
2021/10/24 05:40:59;;;;;;;4.57;1.83;;;3.60;99.90;;;;;;5033391;28;20204;-77
2021/10/24 05:43:25;;;;;;;2.40;1.80;;;3.60;99.90;;;;;;5051218;28;20153;-77
2021/10/24 05:45:51;;;;;;;3.70;3.00;;;3.60;99.90;;;;;;5033310;28;20193;-77
2021/10/24 05:48:21;;;;;;;3.25;2.35;;;3.60;99.90;;;;;;5033199;28;20199;-76
2021/10/24 05:50:47;;;;;;;3.35;2.35;;;3.60;99.90;;;;;;5050775;28;20193;-77
2021/10/24 05:53:14;;;;;;;2.67;1.95;;;3.70;99.90;;;;;;5033161;28;20248;-78
2021/10/24 05:55:43;;;;;;;3.30;2.10;;;3.70;99.90;;;;;;5033117;28;20193;-77
2021/10/24 05:58:09;;;;;;;12.60;2.35;;;3.60;99.90;;;;;;5033224;28;20177;-77
2021/10/24 06:00:34;;;;;;;3.88;2.30;;;3.70;99.90;;;;;;5050626;28;20189;-77
2021/10/24 06:03:04;;;;;;;5.22;2.30;;;3.80;99.90;;;;;;5051073;28;20173;-77
2021/10/24 06:05:31;;;;;;;4.93;2.42;;;3.80;99.90;;;;;;5033073;28;20193;-77
2021/10/24 06:07:58;;;;;;;4.32;1.67;;;3.80;99.90;;;;;;5050885;28;20158;-77
2021/10/24 06:10:31;;;;;;;6.63;2.85;;;3.90;99.90;;;;;;5032711;28;20200;-77
2021/10/24 06:12:57;;;;;;;3.17;1.75;;;4.00;99.90;;;;;;5032935;28;20162;-77
2021/10/24 06:15:25;;;;;;;4.00;2.38;;;4.00;99.90;;;;;;5032728;28;20177;-77
2021/10/24 06:17:51;;;;;;;8.18;2.47;;;4.00;99.90;;;;;;5050464;28;20593;-78
2021/10/24 06:20:19;;;;;;;3.60;2.58;;;4.10;99.90;;;;;;5032642;28;20251;-77
2021/10/24 06:22:45;;;;;;;5.43;2.30;;;4.00;99.90;;;;;;5050490;28;20158;-77
2021/10/24 06:25:13;;;;;;;4.68;2.45;;;4.00;99.90;;;;;;5050306;28;20220;-77
2021/10/24 06:27:41;;;;;;;6.72;2.33;;;3.90;99.90;;;;;;5032528;28;20161;-78
2021/10/24 06:30:09;;;;;;;7.22;2.22;;;4.00;99.90;;;;;;5050231;28;20188;-77
2021/10/24 06:32:36;;;;;;;3.33;2.65;;;4.00;99.90;;;;;;5050197;28;20622;-78
2021/10/24 06:35:04;;;;;;;3.55;2.40;;;4.20;99.90;;;;;;5032462;28;20170;-78
2021/10/24 06:37:37;;;;;;;3.00;2.03;;;4.40;99.90;;;;;;5050180;28;20170;-77
2021/10/24 06:40:05;;;;;;;6.00;2.50;;;4.50;99.90;;;;;;5032037;28;20230;-77
2021/10/24 06:42:31;;;;;;;4.05;2.55;;;4.60;99.90;;;;;;5050065;28;20166;-78
2021/10/24 06:44:57;;;;;;;5.20;3.17;;;4.80;99.90;;;;;;5032010;28;20204;-77
2021/10/24 06:47:23;;;;;;;5.53;2.72;;;4.80;99.90;;;;;;5032048;28;20177;-77
2021/10/24 06:49:50;;;;;;;4.15;2.38;;;4.90;99.90;;;;;;5049569;28;20196;-77
2021/10/24 06:52:15;;;;;;;4.45;2.47;;;4.90;99.90;;;;;;5031928;28;20237;-77
2021/10/24 06:54:41;;;;;;;4.07;2.30;;;5.10;99.90;;;;;;5031901;28;20657;-77
2021/10/24 06:57:07;;;;;;;3.85;2.45;;;5.30;99.90;;;;;;5049697;28;20169;-77
2021/10/24 06:59:33;;;;;;;4.47;2.30;;;5.50;99.90;;;;;;5049209;28;20246;-78
2021/10/24 07:01:59;;;;;;;2.90;2.42;;;5.70;99.90;;;;;;5049391;28;20292;-77
2021/10/24 07:04:25;;;;;;;3.90;2.42;;;5.80;99.90;;;;;;5049558;28;20189;-78
2021/10/24 07:06:51;;;;;;;4.95;2.67;;;5.90;99.90;;;;;;5049504;28;20232;-78
2021/10/24 07:09:17;;;;;;;4.97;2.42;;;6.00;99.90;;;;;;5031613;28;20165;-77
2021/10/24 07:11:43;;;;;;;2.42;1.98;;;6.50;99.90;;;;;;5049472;28;20173;-78
2021/10/24 07:14:09;;;;;;;4.57;2.90;;;6.90;99.90;;;;;;5031598;28;20196;-77
2021/10/24 07:16:35;;;;;;;4.57;2.83;;;6.90;99.90;;;;;;5031689;28;20165;-77
2021/10/24 07:19:01;;;;;;;4.15;2.45;;;7.00;99.90;;;;;;5031748;28;20188;-78
2021/10/24 07:21:27;;;;;;;3.58;2.50;;;7.00;99.90;;;;;;5049243;28;20196;-77
2021/10/24 07:23:53;;;;;;;6.78;2.95;;;7.20;99.90;;;;;;5031343;28;20166;-77
2021/10/24 07:26:18;;;;;;;3.83;2.15;;;7.30;99.90;;;;;;5031450;28;20168;-78
2021/10/24 07:28:44;;;;;;;3.90;1.90;;;7.60;99.90;;;;;;5049253;28;20162;-77
2021/10/24 07:31:10;;;;;;;3.83;2.53;;;7.80;99.90;;;;;;5031170;28;20232;-77
2021/10/24 07:33:36;;;;;;;4.57;2.20;;;8.00;99.90;;;;;;5031465;28;20201;-77
2021/10/24 07:36:02;;;;;;;3.15;2.33;;;8.00;99.90;;;;;;5031365;28;20636;-77
2021/10/24 07:38:29;;;;;;;2.65;2.17;;;8.00;99.90;;;;;;5049117;28;20162;-77
2021/10/24 07:40:55;;;;;;;3.22;2.33;;;8.20;99.90;;;;;;5049033;28;20219;-77
2021/10/24 07:43:22;;;;;;;4.45;2.05;;;8.30;99.90;;;;;;5031281;28;20165;-77
2021/10/24 07:45:50;;;;;;;3.38;2.20;;;8.60;99.90;;;;;;5031136;28;20200;-77
2021/10/24 07:48:20;;;;;;;7.18;2.08;;;8.80;99.90;;;;;;5048941;28;20158;-77
2021/10/24 07:50:47;;;;;;;3.10;2.22;;;9.10;99.90;;;;;;5049115;28;20185;-77
2021/10/24 07:53:14;;;;;;;2.75;2.00;;;9.10;99.90;;;;;;5031432;28;20166;-77
2021/10/24 07:55:41;;;;;;;4.07;2.08;;;9.30;99.90;;;;;;5030915;28;20166;-77
2021/10/24 07:58:07;;;;;;;6.32;2.47;;;9.60;99.90;;;;;;5048705;28;20158;-77
2021/10/24 08:00:33;;;;;;;3.10;2.53;;;9.90;99.90;;;;;;5030565;28;20220;-78
2021/10/24 08:02:59;;;;;;;3.92;2.45;;;10.30;99.90;;;;;;5031078;28;20208;-78
2021/10/24 08:05:26;;;;;;;3.72;2.40;;;11.30;99.90;;;;;;5048620;28;20212;-77
2021/10/24 08:07:53;;;;;;;2.67;1.80;;;13.10;99.90;;;;;;5030883;28;20170;-78
2021/10/24 08:10:19;;;;;;;2.25;2.05;;;14.80;99.90;;;;;;5048508;28;20213;-78
2021/10/24 08:12:45;;;;;;;4.70;2.35;;;15.50;99.90;;;;;;5051572;28;20162;-78
2021/10/24 08:15:12;;;;;;;4.40;2.30;;;16.80;99.90;;;;;;5034599;28;20332;-76
2021/10/24 08:17:39;;;;;;;4.07;2.72;;;18.00;99.90;;;;;;5034711;28;20181;-75
2021/10/24 08:20:06;;;;;;;3.05;2.33;;;18.20;99.90;;;;;;5052424;28;20193;-75
2021/10/24 08:22:33;;;;;;;7.03;2.50;;;17.60;99.90;;;;;;5034548;28;20177;-77
2021/10/24 08:25:00;;;;;;;3.60;2.70;;;16.10;99.90;;;;;;5052438;28;20189;-75
2021/10/24 08:27:27;;;;;;;2.67;2.35;;;17.40;99.90;;;;;;5052346;28;20188;-77
2021/10/24 08:29:54;;;;;;;3.90;2.38;;;17.40;99.90;;;;;;5034808;28;20193;-77
2021/10/24 08:32:19;;;;;;;5.63;2.85;;;17.10;99.90;;;;;;5034475;28;20166;-76
2021/10/24 08:34:45;;;;;;;2.65;2.38;;;17.80;99.90;;;;;;5034398;28;20184;-76
2021/10/24 08:37:11;;;;;;;2.72;2.05;;;17.70;99.70;;;;;;5052163;28;20177;-76
2021/10/24 08:39:38;;;;;;;3.38;2.33;;;16.70;99.90;;;;;;5034433;28;20200;-76
2021/10/24 08:42:05;;;;;;;3.65;2.42;;;17.00;99.90;;;;;;5034366;28;20169;-76
2021/10/24 08:44:35;;;;;;;3.40;1.95;;;17.20;99.90;;;;;;5051951;28;20208;-75
2021/10/24 08:47:02;;;;;;;2.50;2.03;;;15.80;99.90;;;;;;5051890;28;20180;-76
2021/10/24 08:49:28;;;;;;;2.47;1.92;;;15.90;99.90;;;;;;5034114;28;20228;-75
2021/10/24 08:51:55;;;;;;;5.07;2.53;;;14.50;99.90;;;;;;5034107;28;20196;-75
2021/10/24 08:54:28;;;;;;;4.07;2.42;;;13.40;99.90;;;;;;5034075;28;20259;-75
2021/10/24 08:56:57;;;;;;;3.67;2.10;;;11.90;99.90;;;;;;5033916;28;20192;-75
2021/10/24 08:59:22;;;;;;;4.22;2.45;;;11.70;99.90;;;;;;5033678;28;20184;-75
2021/10/24 09:01:52;;;;;;;7.45;2.30;;;11.40;99.90;;;;;;5051631;28;20281;-74
2021/10/24 09:04:19;;;;;;;10.15;2.22;;;10.70;99.90;;;;;;5033777;28;20204;-75
2021/10/24 09:07:00;;;;;;;3.83;2.45;;;10.80;99.90;;;;;;5051790;28;20162;-75
2021/10/24 09:09:31;;;;;;;2.83;2.03;;;10.70;99.90;;;;;;5051382;28;20164;-75
2021/10/24 09:11:59;;;;;;;4.65;2.22;;;10.10;99.90;;;;;;5051486;28;20158;-75
2021/10/24 09:14:41;;;;;;;3.97;2.33;;;10.30;99.90;;;;;;5051409;28;20157;-75
2021/10/24 09:17:10;;;;;;;10.35;3.17;;;10.60;99.90;;;;;;5033732;28;20178;-75
2021/10/24 09:19:41;;;;;;;6.20;2.95;;;10.70;99.90;;;;;;5033555;28;20197;-75
2021/10/24 09:22:35;;;;;;;7.38;2.70;;;10.60;99.90;;;;;;5033110;28;20228;-75
2021/10/24 09:25:02;;;;;;;4.30;2.40;;;10.60;99.90;;;;;;5033297;28;20196;-76
2021/10/24 09:27:33;;;;;;;5.00;2.42;;;10.40;99.90;;;;;;5051334;28;20183;-75
2021/10/24 09:30:08;;;;;;;8.60;3.17;;;10.40;99.90;;;;;;5051088;28;20189;-75
2021/10/24 09:32:46;;;;;;;4.00;2.38;;;10.20;99.90;;;;;;5033326;28;20164;-75
2021/10/24 09:35:13;;;;;;;4.20;2.28;;;10.10;99.90;;;;;;5033379;28;20260;-77
2021/10/24 09:37:49;;;;;;;3.20;1.90;;;9.90;99.90;;;;;;5051108;28;20336;-75
2021/10/24 09:40:25;;;;;;;6.35;2.50;;;10.00;99.90;;;;;;5050712;28;20224;-74
2021/10/24 09:43:19;;;;;;;5.18;2.38;;;10.40;99.90;;;;;;5050961;28;20157;-75
2021/10/24 09:45:49;;;;;;;5.20;2.35;;;10.40;99.90;;;;;;5050831;28;20192;-75
2021/10/24 09:48:17;;;;;;;5.10;2.45;;;10.60;99.90;;;;;;5051030;28;20220;-76
2021/10/24 09:50:55;;;;;;;3.50;2.42;;;10.70;99.90;;;;;;5033015;28;20198;-75
2021/10/24 09:53:26;;;;;;;8.07;2.22;;;11.10;99.90;;;;;;5050749;28;20161;-76
2021/10/24 09:56:00;;;;;;;2.47;1.95;;;12.00;99.90;;;;;;5050704;28;20162;-75
2021/10/24 09:58:38;;;;;;;4.25;2.50;;;13.90;99.90;;;;;;5032958;28;20199;-75
2021/10/24 10:01:06;;;;;;;2.90;1.83;;;16.60;99.90;;;;;;5029387;28;20717;-75
2021/10/24 10:03:36;;;;;;;3.97;2.63;;;17.00;99.40;;;;;;5030799;28;20200;-75
2021/10/24 10:06:03;;;;;;;8.20;4.10;;;17.40;99.90;;;;;;5030604;28;20190;-75
2021/10/24 10:08:31;;;;;;;3.90;2.42;;;16.70;99.70;;;;;;5029401;28;20217;-75
2021/10/24 10:11:02;;;;;;;4.20;2.50;;;17.50;99.10;;;;;;5030631;28;20190;-75
2021/10/24 10:13:31;;;;;;;10.75;5.30;;;17.80;99.90;;;;;;5029413;28;20185;-76
2021/10/24 10:16:10;;;;;;;3.55;2.60;;;17.30;97.80;;;;;;5029368;28;20204;-74
2021/10/24 10:18:57;;;;;;;6.13;2.60;;;16.50;99.10;;;;;;5030665;28;20166;-74
2021/10/24 10:21:32;;;;;;;3.63;2.20;;;15.70;99.90;;;;;;5030315;28;20201;-75
2021/10/24 10:24:04;;;;;;;4.78;2.28;;;16.30;99.30;;;;;;5030072;28;20177;-74
2021/10/24 10:26:38;;;;;;;3.95;2.55;;;15.40;99.90;;;;;;5030396;28;20154;-75
2021/10/24 10:29:31;;;;;;;3.92;1.90;;;16.30;99.90;;;;;;5030284;28;20185;-74
2021/10/24 10:32:15;;;;;;;6.93;2.15;;;15.30;99.90;;;;;;5007359;28;20201;-74
2021/10/24 10:34:59;;;;;;;3.88;2.05;;;14.60;99.90;;;;;;5029502;28;20178;-74
2021/10/24 10:37:58;;;;;;;3.05;2.10;;;13.80;99.90;;;;;;5030220;28;20166;-74
2021/10/24 10:40:38;;;;;;;5.60;2.63;;;14.60;99.90;;;;;;4969509;29;20235;-75
2021/10/24 10:43:21;;;;;;;4.03;1.80;;;15.90;99.90;;;;;;4969518;29;20192;-75
2021/10/24 10:45:53;;;;;;;4.93;2.15;;;16.10;99.90;;;;;;4969280;29;20203;-74
2021/10/24 10:48:24;;;;;;;2.17;1.73;;;15.90;99.90;;;;;;4969501;29;20165;-74
2021/10/24 10:51:18;;;;;;;6.97;2.58;;;15.20;99.90;;;;;;4969192;29;20203;-75
2021/10/24 10:53:46;;;;;;;4.55;2.47;;;14.10;99.90;;;;;;4969016;29;20168;-74
2021/10/24 10:56:12;;;;;;;3.15;2.55;;;13.30;99.90;;;;;;4968747;29;20195;-74
2021/10/24 10:58:48;;;;;;;5.15;2.28;;;12.80;99.90;;;;;;4953013;29;20602;-75
2021/10/24 11:01:21;;;;;;;3.45;2.50;;;12.10;99.90;;;;;;4968928;29;20707;-74
2021/10/24 11:03:51;;;;;;;4.88;2.08;;;11.80;99.90;;;;;;4969186;29;20204;-75
2021/10/24 11:06:23;;;;;;;2.85;2.33;;;11.70;99.90;;;;;;4968941;29;20184;-75
2021/10/24 11:08:50;;;;;;;3.40;2.58;;;12.30;99.90;;;;;;4969033;29;20259;-74
2021/10/24 11:11:41;;;;;;;3.08;2.47;;;13.10;99.90;;;;;;4968729;29;20266;-75
2021/10/24 11:14:33;;;;;;;2.83;2.40;;;12.80;99.90;;;;;;4968994;29;20156;-75
2021/10/24 11:17:02;;;;;;;2.97;2.00;;;12.80;99.90;;;;;;5018839;28;20192;-74
2021/10/24 11:19:37;;;;;;;3.33;2.17;;;12.70;99.90;;;;;;5029423;28;20185;-74
2021/10/24 11:22:09;;;;;;;7.72;2.40;;;12.80;99.90;;;;;;5029424;28;20156;-74
2021/10/24 11:24:44;;;;;;;4.43;2.20;;;12.50;99.90;;;;;;5029365;28;20288;-75
2021/10/24 11:27:17;;;;;;;2.75;2.10;;;12.60;99.90;;;;;;5028156;28;20188;-75
2021/10/24 11:29:48;;;;;;;3.53;2.08;;;12.80;99.90;;;;;;5029281;28;20194;-75
2021/10/24 11:32:24;;;;;;;5.32;2.30;;;12.80;99.90;;;;;;5027994;28;20191;-74
2021/10/24 11:34:54;;;;;;;3.15;1.98;;;12.20;99.90;;;;;;5027837;28;20177;-74
2021/10/24 11:37:36;;;;;;;2.78;2.10;;;11.80;99.90;;;;;;5029377;28;20363;-74
2021/10/24 11:40:09;;;;;;;4.57;2.13;;;11.60;99.90;;;;;;5029109;28;20253;-75
2021/10/24 11:42:36;;;;;;;2.95;1.80;;;11.90;99.90;;;;;;5029239;28;20158;-74
2021/10/24 11:45:22;;;;;;;4.65;2.42;;;12.00;99.90;;;;;;5027726;28;20201;-74
2021/10/24 11:47:58;;;;;;;2.65;2.05;;;11.80;99.90;;;;;;5029156;28;20154;-74
2021/10/24 11:50:52;;;;;;;3.30;2.15;;;11.50;99.90;;;;;;5028912;28;20193;-75
2021/10/24 11:53:38;;;;;;;2.10;1.90;;;11.60;99.90;;;;;;5029113;28;20309;-74
2021/10/24 11:57:04;;;;;;;5.13;2.05;;;11.40;99.90;;;;;;5027458;28;20169;-74
2021/10/24 11:59:16;;;;;;;2.83;2.40;;;11.70;99.90;;;;;;5025920;28;20208;-74
2021/10/24 12:01:42;;;;;;;2.78;2.10;;;12.00;99.90;;;;;;5039358;28;20246;-74
2021/10/24 12:04:13;;;;;;;2.08;1.63;;;12.20;99.90;;;;;;5048797;28;20176;-75
2021/10/24 12:06:58;;;;;;;1.80;1.60;;;12.50;99.90;;;;;;5047544;28;20259;-75
2021/10/24 12:09:44;;;;;;;2.22;1.85;;;12.80;99.90;;;;;;5041612;28;20185;-75
2021/10/24 12:12:13;;;;;;;1.80;1.70;;;13.00;99.90;;;;;;5017039;28;20196;-75
2021/10/24 12:14:47;;;;;;;2.20;1.85;;;13.20;99.90;;;;;;5021654;28;20242;-74
2021/10/24 12:17:28;;;;;;;2.45;1.77;;;13.20;99.90;;;;;;5017570;28;20180;-74
2021/10/24 12:20:10;;;;;;;3.58;1.90;;;12.80;99.90;;;;;;5030535;28;20192;-74
2021/10/24 12:22:45;;;;;;;3.42;2.00;;;12.10;99.90;;;;;;5045764;28;20199;-74
2021/10/24 12:25:18;;;;;;;3.13;2.08;;;12.10;99.90;;;;;;5048339;28;20222;-74
2021/10/24 12:28:12;;;;;;;2.47;1.83;;;12.20;99.90;;;;;;5048276;28;20197;-75
2021/10/24 12:30:40;;;;;;;3.35;2.05;;;12.50;99.90;;;;;;5047881;28;20169;-74
2021/10/24 12:33:11;;;;;;;5.60;1.98;;;12.60;99.90;;;;;;5048607;28;20169;-74
2021/10/24 12:35:46;;;;;;;3.95;2.10;;;12.50;99.90;;;;;;5030665;28;20174;-75
2021/10/24 12:38:12;;;;;;;4.57;2.20;;;12.40;99.90;;;;;;5047054;28;20196;-75
2021/10/24 12:40:38;;;;;;;2.00;1.63;;;12.40;99.90;;;;;;5043467;28;20187;-74
2021/10/24 12:43:06;;;;;;;2.38;2.03;;;12.00;99.90;;;;;;5043088;28;20193;-74
2021/10/24 12:45:41;;;;;;;4.72;1.77;;;11.80;99.90;;;;;;5010738;28;20271;-74
2021/10/24 12:48:07;;;;;;;4.68;2.30;;;11.80;99.90;;;;;;5010958;28;20665;-74
2021/10/24 12:50:35;;;;;;;3.95;1.80;;;11.80;99.90;;;;;;5044631;28;20215;-74
2021/10/24 12:53:06;;;;;;;6.82;1.83;;;11.80;99.90;;;;;;5048412;28;20181;-75
2021/10/24 12:55:33;;;;;;;3.50;1.60;;;11.90;99.90;;;;;;5030174;28;20664;-75
2021/10/24 12:58:02;;;;;;;3.25;1.73;;;11.90;99.90;;;;;;5049574;28;20153;-74
2021/10/24 13:00:29;;;;;;;4.63;2.28;;;11.80;99.90;;;;;;5051285;28;20189;-75
2021/10/24 13:02:56;;;;;;;3.20;1.70;;;11.70;99.90;;;;;;5046992;28;20213;-74